sensor_id;sensor_type;location;lat;lon;timestamp;pressure;altitude;pressure_sealevel;temperature;humidity
40788;BME280;26497;52.494;7.546;2023-03-24T00:00:25;99319.78;;;14.73;82.08
40788;BME280;26497;52.494;7.546;2023-03-24T00:02:54;99330.66;;;14.89;81.80
40788;BME280;26497;52.494;7.546;2023-03-24T00:05:26;99321.28;;;15.02;81.01
40788;BME280;26497;52.494;7.546;2023-03-24T00:07:55;99309.50;;;15.10;80.65
40788;BME280;26497;52.494;7.546;2023-03-24T00:10:24;99310.72;;;15.01;80.98
40788;BME280;26497;52.494;7.546;2023-03-24T00:12:55;99315.78;;;14.61;83.15
40788;BME280;26497;52.494;7.546;2023-03-24T00:15:24;99303.81;;;14.74;83.12
40788;BME280;26497;52.494;7.546;2023-03-24T00:17:51;99308.00;;;14.80;82.85
40788;BME280;26497;52.494;7.546;2023-03-24T00:20:23;99294.19;;;14.94;82.68
40788;BME280;26497;52.494;7.546;2023-03-24T00:22:53;99287.41;;;14.87;83.16
40788;BME280;26497;52.494;7.546;2023-03-24T00:25:26;99292.94;;;15.03;82.15
40788;BME280;26497;52.494;7.546;2023-03-24T00:27:54;99285.97;;;15.00;82.23
40788;BME280;26497;52.494;7.546;2023-03-24T00:30:22;99281.59;;;14.99;82.58
40788;BME280;26497;52.494;7.546;2023-03-24T00:32:50;99274.56;;;14.98;82.97
40788;BME280;26497;52.494;7.546;2023-03-24T00:35:17;99275.94;;;15.07;82.70
40788;BME280;26497;52.494;7.546;2023-03-24T00:37:46;99269.53;;;15.13;82.38
40788;BME280;26497;52.494;7.546;2023-03-24T00:40:17;99260.53;;;15.17;82.33
40788;BME280;26497;52.494;7.546;2023-03-24T00:42:46;99266.16;;;14.87;84.07
40788;BME280;26497;52.494;7.546;2023-03-24T00:45:16;99258.50;;;14.79;84.99
40788;BME280;26497;52.494;7.546;2023-03-24T00:47:44;99254.66;;;14.86;85.18
40788;BME280;26497;52.494;7.546;2023-03-24T00:50:16;99248.63;;;14.83;85.28
40788;BME280;26497;52.494;7.546;2023-03-24T00:52:46;99244.94;;;14.87;85.53
40788;BME280;26497;52.494;7.546;2023-03-24T00:55:14;99241.72;;;14.79;86.55
40788;BME280;26497;52.494;7.546;2023-03-24T00:57:45;99240.44;;;14.89;86.40
40788;BME280;26497;52.494;7.546;2023-03-24T01:00:17;99237.81;;;15.10;85.27
40788;BME280;26497;52.494;7.546;2023-03-24T01:02:46;99233.72;;;15.23;83.77
40788;BME280;26497;52.494;7.546;2023-03-24T01:05:14;99224.47;;;15.11;84.75
40788;BME280;26497;52.494;7.546;2023-03-24T01:07:42;99227.56;;;15.00;85.42
40788;BME280;26497;52.494;7.546;2023-03-24T01:10:13;99214.31;;;14.78;86.82
40788;BME280;26497;52.494;7.546;2023-03-24T01:12:40;99221.16;;;14.84;87.23
40788;BME280;26497;52.494;7.546;2023-03-24T01:15:12;99207.94;;;15.04;86.31
40788;BME280;26497;52.494;7.546;2023-03-24T01:17:41;99198.66;;;15.15;85.95
40788;BME280;26497;52.494;7.546;2023-03-24T01:20:10;99197.25;;;15.27;84.91
40788;BME280;26497;52.494;7.546;2023-03-24T01:22:39;99194.59;;;15.27;85.18
40788;BME280;26497;52.494;7.546;2023-03-24T01:25:13;99192.53;;;15.33;84.96
40788;BME280;26497;52.494;7.546;2023-03-24T01:27:42;99193.41;;;15.34;85.00
40788;BME280;26497;52.494;7.546;2023-03-24T01:30:12;99188.81;;;15.17;85.66
40788;BME280;26497;52.494;7.546;2023-03-24T01:32:40;99183.91;;;15.08;86.50
40788;BME280;26497;52.494;7.546;2023-03-24T01:35:07;99177.94;;;15.23;86.10
40788;BME280;26497;52.494;7.546;2023-03-24T01:37:34;99173.22;;;15.30;85.58
40788;BME280;26497;52.494;7.546;2023-03-24T01:40:02;99163.06;;;15.19;85.99
40788;BME280;26497;52.494;7.546;2023-03-24T01:42:33;99160.34;;;15.21;86.19
40788;BME280;26497;52.494;7.546;2023-03-24T01:48:22;99155.59;;;15.27;86.34
40788;BME280;26497;52.494;7.546;2023-03-24T01:50:56;99149.78;;;15.19;86.93
40788;BME280;26497;52.494;7.546;2023-03-24T01:53:24;99145.78;;;15.29;86.25
40788;BME280;26497;52.494;7.546;2023-03-24T01:55:53;99139.22;;;15.38;85.88
40788;BME280;26497;52.494;7.546;2023-03-24T01:58:23;99138.34;;;15.38;85.96
40788;BME280;26497;52.494;7.546;2023-03-24T02:00:50;99131.69;;;15.48;85.49
40788;BME280;26497;52.494;7.546;2023-03-24T02:03:21;99126.59;;;15.62;85.19
40788;BME280;26497;52.494;7.546;2023-03-24T02:05:53;99118.06;;;15.75;84.32
40788;BME280;26497;52.494;7.546;2023-03-24T02:08:29;99121.47;;;15.78;84.07
40788;BME280;26497;52.494;7.546;2023-03-24T02:10:58;99118.06;;;15.75;83.96
40788;BME280;26497;52.494;7.546;2023-03-24T02:13:28;99115.63;;;15.70;84.63
40788;BME280;26497;52.494;7.546;2023-03-24T02:16:18;99103.06;;;15.74;84.27
40788;BME280;26497;52.494;7.546;2023-03-24T02:19:05;99102.06;;;15.76;84.49
40788;BME280;26497;52.494;7.546;2023-03-24T02:22:15;99095.66;;;15.61;85.17
40788;BME280;26497;52.494;7.546;2023-03-24T02:25:29;99074.75;;;15.73;85.27
40788;BME280;26497;52.494;7.546;2023-03-24T02:28:23;99075.41;;;15.78;84.74
40788;BME280;26497;52.494;7.546;2023-03-24T02:31:33;99070.88;;;15.80;84.86
40788;BME280;26497;52.494;7.546;2023-03-24T02:35:00;99066.34;;;15.82;84.84
40788;BME280;26497;52.494;7.546;2023-03-24T02:38:03;99059.94;;;15.86;84.69
40788;BME280;26497;52.494;7.546;2023-03-24T02:40:40;99051.13;;;15.86;84.35
40788;BME280;26497;52.494;7.546;2023-03-24T02:43:25;99063.69;;;15.82;84.35
40788;BME280;26497;52.494;7.546;2023-03-24T02:46:09;99048.97;;;15.75;84.99
40788;BME280;26497;52.494;7.546;2023-03-24T02:48:48;99043.97;;;15.88;84.13
40788;BME280;26497;52.494;7.546;2023-03-24T02:51:25;99052.25;;;15.80;84.46
40788;BME280;26497;52.494;7.546;2023-03-24T02:54:01;99033.59;;;15.62;85.32
40788;BME280;26497;52.494;7.546;2023-03-24T02:56:37;99040.63;;;15.63;85.47
40788;BME280;26497;52.494;7.546;2023-03-24T02:59:08;99035.13;;;15.68;85.09
40788;BME280;26497;52.494;7.546;2023-03-24T03:01:40;99029.66;;;15.52;86.12
40788;BME280;26497;52.494;7.546;2023-03-24T03:04:11;99034.03;;;15.72;85.69
40788;BME280;26497;52.494;7.546;2023-03-24T03:06:43;99019.75;;;15.37;87.24
40788;BME280;26497;52.494;7.546;2023-03-24T03:09:16;99015.78;;;15.65;86.18
40788;BME280;26497;52.494;7.546;2023-03-24T03:11:49;99016.47;;;15.51;87.17
40788;BME280;26497;52.494;7.546;2023-03-24T03:14:21;99016.56;;;15.67;86.52
40788;BME280;26497;52.494;7.546;2023-03-24T03:16:53;99011.84;;;15.54;87.30
40788;BME280;26497;52.494;7.546;2023-03-24T03:19:30;99005.06;;;15.85;85.57
40788;BME280;26497;52.494;7.546;2023-03-24T03:22:00;98999.91;;;15.82;85.60
40788;BME280;26497;52.494;7.546;2023-03-24T03:24:34;99002.50;;;15.84;85.82
40788;BME280;26497;52.494;7.546;2023-03-24T03:27:09;98997.28;;;15.63;86.83
40788;BME280;26497;52.494;7.546;2023-03-24T03:29:42;98994.91;;;15.57;87.93
40788;BME280;26497;52.494;7.546;2023-03-24T03:32:17;98986.56;;;15.65;87.49
40788;BME280;26497;52.494;7.546;2023-03-24T03:34:54;98983.22;;;15.61;87.88
40788;BME280;26497;52.494;7.546;2023-03-24T03:37:29;98987.38;;;15.47;89.12
40788;BME280;26497;52.494;7.546;2023-03-24T03:40:01;98986.72;;;15.61;88.58
40788;BME280;26497;52.494;7.546;2023-03-24T03:42:32;98983.16;;;15.80;87.75
40788;BME280;26497;52.494;7.546;2023-03-24T03:44:59;98980.41;;;15.64;88.61
40788;BME280;26497;52.494;7.546;2023-03-24T03:47:26;98985.75;;;15.82;87.46
40788;BME280;26497;52.494;7.546;2023-03-24T03:49:53;98975.72;;;15.69;88.00
40788;BME280;26497;52.494;7.546;2023-03-24T03:52:21;98971.91;;;15.75;88.21
40788;BME280;26497;52.494;7.546;2023-03-24T03:54:49;98969.31;;;15.92;87.06
40788;BME280;26497;52.494;7.546;2023-03-24T03:57:17;98975.81;;;15.87;86.95
40788;BME280;26497;52.494;7.546;2023-03-24T03:59:46;98965.16;;;15.68;88.19
40788;BME280;26497;52.494;7.546;2023-03-24T04:02:32;98970.91;;;15.58;89.46
40788;BME280;26497;52.494;7.546;2023-03-24T04:05:23;98978.22;;;15.72;89.37
40788;BME280;26497;52.494;7.546;2023-03-24T04:08:17;98977.00;;;16.16;86.67
40788;BME280;26497;52.494;7.546;2023-03-24T04:13:54;98971.50;;;16.02;86.68
40788;BME280;26497;52.494;7.546;2023-03-24T04:16:37;98968.06;;;16.00;87.30
40788;BME280;26497;52.494;7.546;2023-03-24T04:19:20;98964.38;;;16.02;86.59
40788;BME280;26497;52.494;7.546;2023-03-24T04:22:03;98979.00;;;15.94;87.24
40788;BME280;26497;52.494;7.546;2023-03-24T04:24:43;98979.06;;;15.92;87.63
40788;BME280;26497;52.494;7.546;2023-03-24T04:27:22;98972.59;;;15.98;87.22
40788;BME280;26497;52.494;7.546;2023-03-24T04:30:00;98990.28;;;16.16;86.08
40788;BME280;26497;52.494;7.546;2023-03-24T04:32:36;98987.63;;;15.80;87.93
40788;BME280;26497;52.494;7.546;2023-03-24T04:35:09;98982.88;;;15.86;88.25
40788;BME280;26497;52.494;7.546;2023-03-24T04:37:38;98976.50;;;15.90;87.32
40788;BME280;26497;52.494;7.546;2023-03-24T04:40:09;98984.00;;;16.00;87.00
40788;BME280;26497;52.494;7.546;2023-03-24T04:42:41;98978.91;;;15.95;86.97
40788;BME280;26497;52.494;7.546;2023-03-24T04:45:11;98979.41;;;15.84;87.01
40788;BME280;26497;52.494;7.546;2023-03-24T04:47:45;98994.72;;;15.79;87.36
40788;BME280;26497;52.494;7.546;2023-03-24T04:50:13;99005.81;;;15.70;87.94
40788;BME280;26497;52.494;7.546;2023-03-24T04:52:55;99035.91;;;15.51;88.39
40788;BME280;26497;52.494;7.546;2023-03-24T04:55:42;99044.44;;;15.96;86.37
40788;BME280;26497;52.494;7.546;2023-03-24T04:58:13;99044.25;;;16.18;84.27
40788;BME280;26497;52.494;7.546;2023-03-24T05:00:40;99054.47;;;16.09;83.18
40788;BME280;26497;52.494;7.546;2023-03-24T05:03:10;99050.06;;;15.90;82.98
40788;BME280;26497;52.494;7.546;2023-03-24T05:05:38;99046.66;;;15.86;82.35
40788;BME280;26497;52.494;7.546;2023-03-24T05:08:06;99041.00;;;15.94;81.60
40788;BME280;26497;52.494;7.546;2023-03-24T05:10:34;99066.97;;;15.89;81.41
40788;BME280;26497;52.494;7.546;2023-03-24T05:13:02;99062.91;;;15.61;80.91
40788;BME280;26497;52.494;7.546;2023-03-24T05:15:29;99083.56;;;15.54;81.74
40788;BME280;26497;52.494;7.546;2023-03-24T05:17:56;99091.28;;;15.60;81.70
40788;BME280;26497;52.494;7.546;2023-03-24T05:20:25;99105.56;;;15.77;80.93
40788;BME280;26497;52.494;7.546;2023-03-24T05:22:52;99104.97;;;15.51;81.19
40788;BME280;26497;52.494;7.546;2023-03-24T05:25:21;99109.34;;;15.52;81.28
40788;BME280;26497;52.494;7.546;2023-03-24T05:27:48;99099.56;;;15.33;80.79
40788;BME280;26497;52.494;7.546;2023-03-24T05:30:15;99127.75;;;14.96;81.07
40788;BME280;26497;52.494;7.546;2023-03-24T05:32:44;99136.41;;;14.79;81.31
40788;BME280;26497;52.494;7.546;2023-03-24T05:35:11;99140.53;;;14.86;80.73
40788;BME280;26497;52.494;7.546;2023-03-24T05:37:40;99144.50;;;14.76;80.02
40788;BME280;26497;52.494;7.546;2023-03-24T05:40:08;99150.69;;;14.77;79.41
40788;BME280;26497;52.494;7.546;2023-03-24T05:42:35;99158.53;;;14.80;78.58
40788;BME280;26497;52.494;7.546;2023-03-24T05:45:04;99169.41;;;14.51;79.66
40788;BME280;26497;52.494;7.546;2023-03-24T05:47:32;99182.22;;;14.40;79.53
40788;BME280;26497;52.494;7.546;2023-03-24T05:49:59;99184.22;;;14.33;79.95
40788;BME280;26497;52.494;7.546;2023-03-24T05:52:26;99187.94;;;14.29;79.22
40788;BME280;26497;52.494;7.546;2023-03-24T05:54:54;99201.34;;;14.48;78.80
40788;BME280;26497;52.494;7.546;2023-03-24T05:57:21;99201.59;;;14.64;77.84
40788;BME280;26497;52.494;7.546;2023-03-24T05:59:48;99217.75;;;14.80;77.13
40788;BME280;26497;52.494;7.546;2023-03-24T06:02:16;99221.75;;;14.68;76.62
40788;BME280;26497;52.494;7.546;2023-03-24T06:04:43;99214.22;;;14.35;76.91
40788;BME280;26497;52.494;7.546;2023-03-24T06:07:14;99214.41;;;14.53;76.33
40788;BME280;26497;52.494;7.546;2023-03-24T06:09:41;99218.34;;;14.42;75.83
40788;BME280;26497;52.494;7.546;2023-03-24T06:12:13;99219.50;;;14.13;76.48
40788;BME280;26497;52.494;7.546;2023-03-24T06:14:40;99213.44;;;14.09;77.65
40788;BME280;26497;52.494;7.546;2023-03-24T06:17:08;99212.56;;;14.33;76.41
40788;BME280;26497;52.494;7.546;2023-03-24T06:19:39;99225.34;;;14.45;75.43
40788;BME280;26497;52.494;7.546;2023-03-24T06:22:15;99229.56;;;14.95;74.32
40788;BME280;26497;52.494;7.546;2023-03-24T06:24:42;99233.16;;;15.36;70.33
40788;BME280;26497;52.494;7.546;2023-03-24T06:27:09;99244.19;;;15.68;69.06
40788;BME280;26497;52.494;7.546;2023-03-24T06:29:38;99257.44;;;16.09;67.52
40788;BME280;26497;52.494;7.546;2023-03-24T06:32:07;99256.19;;;16.37;65.63
40788;BME280;26497;52.494;7.546;2023-03-24T06:34:34;99261.06;;;15.87;64.84
40788;BME280;26497;52.494;7.546;2023-03-24T06:37:02;99268.56;;;15.77;65.50
40788;BME280;26497;52.494;7.546;2023-03-24T06:39:30;99280.28;;;15.30;66.25
40788;BME280;26497;52.494;7.546;2023-03-24T06:41:57;99272.44;;;15.07;68.39
40788;BME280;26497;52.494;7.546;2023-03-24T06:44:24;99278.13;;;14.97;68.57
40788;BME280;26497;52.494;7.546;2023-03-24T06:46:52;99278.75;;;15.04;68.60
40788;BME280;26497;52.494;7.546;2023-03-24T06:49:19;99287.19;;;14.69;69.55
40788;BME280;26497;52.494;7.546;2023-03-24T06:51:46;99275.28;;;14.80;70.10
40788;BME280;26497;52.494;7.546;2023-03-24T06:54:15;99271.50;;;14.63;70.87
40788;BME280;26497;52.494;7.546;2023-03-24T06:56:42;99288.88;;;14.94;70.12
40788;BME280;26497;52.494;7.546;2023-03-24T06:59:09;99284.91;;;14.82;68.51
40788;BME280;26497;52.494;7.546;2023-03-24T07:01:36;99293.41;;;14.68;69.02
40788;BME280;26497;52.494;7.546;2023-03-24T07:04:06;99287.28;;;14.90;67.53
40788;BME280;26497;52.494;7.546;2023-03-24T07:06:33;99292.25;;;14.98;67.79
40788;BME280;26497;52.494;7.546;2023-03-24T07:09:00;99305.13;;;15.09;66.23
40788;BME280;26497;52.494;7.546;2023-03-24T07:11:27;99314.91;;;15.29;65.07
40788;BME280;26497;52.494;7.546;2023-03-24T07:13:54;99311.22;;;15.54;62.90
40788;BME280;26497;52.494;7.546;2023-03-24T07:16:21;99307.09;;;15.24;59.66
40788;BME280;26497;52.494;7.546;2023-03-24T07:18:48;99304.16;;;15.32;60.61
40788;BME280;26497;52.494;7.546;2023-03-24T07:21:17;99303.44;;;15.49;60.85
40788;BME280;26497;52.494;7.546;2023-03-24T07:23:44;99322.19;;;15.67;60.57
40788;BME280;26497;52.494;7.546;2023-03-24T07:26:11;99330.38;;;15.83;59.20
40788;BME280;26497;52.494;7.546;2023-03-24T07:28:38;99335.19;;;15.52;59.84
40788;BME280;26497;52.494;7.546;2023-03-24T07:31:05;99335.81;;;15.37;60.22
40788;BME280;26497;52.494;7.546;2023-03-24T07:33:35;99355.06;;;15.21;62.19
40788;BME280;26497;52.494;7.546;2023-03-24T07:36:04;99343.38;;;15.47;60.47
40788;BME280;26497;52.494;7.546;2023-03-24T07:38:33;99356.81;;;15.22;61.42
40788;BME280;26497;52.494;7.546;2023-03-24T07:41:00;99350.72;;;15.18;62.71
40788;BME280;26497;52.494;7.546;2023-03-24T07:43:27;99336.78;;;15.56;61.68
40788;BME280;26497;52.494;7.546;2023-03-24T07:45:54;99341.00;;;15.62;59.96
40788;BME280;26497;52.494;7.546;2023-03-24T07:48:21;99347.44;;;15.77;60.80
40788;BME280;26497;52.494;7.546;2023-03-24T07:50:48;99351.38;;;16.10;59.71
40788;BME280;26497;52.494;7.546;2023-03-24T07:53:15;99353.06;;;16.31;60.28
40788;BME280;26497;52.494;7.546;2023-03-24T07:55:45;99361.81;;;16.14;58.49
40788;BME280;26497;52.494;7.546;2023-03-24T07:58:13;99354.78;;;16.13;59.09
40788;BME280;26497;52.494;7.546;2023-03-24T08:00:40;99361.47;;;16.01;58.88
40788;BME280;26497;52.494;7.546;2023-03-24T08:03:10;99370.78;;;15.91;60.04
40788;BME280;26497;52.494;7.546;2023-03-24T08:05:40;99374.22;;;16.34;59.19
40788;BME280;26497;52.494;7.546;2023-03-24T08:08:08;99377.91;;;16.11;59.26
40788;BME280;26497;52.494;7.546;2023-03-24T08:10:35;99375.69;;;16.61;58.23
40788;BME280;26497;52.494;7.546;2023-03-24T08:13:04;99369.66;;;16.76;57.70
40788;BME280;26497;52.494;7.546;2023-03-24T08:15:31;99369.41;;;17.02;55.32
40788;BME280;26497;52.494;7.546;2023-03-24T08:17:58;99382.88;;;17.35;56.20
40788;BME280;26497;52.494;7.546;2023-03-24T08:20:25;99379.78;;;17.45;55.58
40788;BME280;26497;52.494;7.546;2023-03-24T08:22:54;99386.94;;;17.25;55.17
40788;BME280;26497;52.494;7.546;2023-03-24T08:25:23;99388.69;;;17.07;56.20
40788;BME280;26497;52.494;7.546;2023-03-24T08:27:51;99394.81;;;17.09;57.24
40788;BME280;26497;52.494;7.546;2023-03-24T08:30:21;99394.38;;;17.36;56.13
40788;BME280;26497;52.494;7.546;2023-03-24T08:32:50;99399.34;;;17.44;56.11
40788;BME280;26497;52.494;7.546;2023-03-24T08:35:21;99402.22;;;17.93;54.76
40788;BME280;26497;52.494;7.546;2023-03-24T08:37:48;99401.63;;;18.06;53.62
40788;BME280;26497;52.494;7.546;2023-03-24T08:40:19;99398.44;;;17.97;53.08
40788;BME280;26497;52.494;7.546;2023-03-24T08:42:49;99401.44;;;17.56;53.93
40788;BME280;26497;52.494;7.546;2023-03-24T08:45:19;99403.97;;;17.77;52.94
40788;BME280;26497;52.494;7.546;2023-03-24T08:47:48;99406.19;;;18.55;50.30
40788;BME280;26497;52.494;7.546;2023-03-24T08:50:17;99403.34;;;18.58;50.08
40788;BME280;26497;52.494;7.546;2023-03-24T08:52:45;99375.31;;;18.33;50.57
40788;BME280;26497;52.494;7.546;2023-03-24T08:55:13;99408.50;;;18.27;52.12
40788;BME280;26497;52.494;7.546;2023-03-24T08:57:41;99401.66;;;18.73;49.10
40788;BME280;26497;52.494;7.546;2023-03-24T09:00:10;99414.13;;;18.56;48.97
40788;BME280;26497;52.494;7.546;2023-03-24T09:02:42;99413.22;;;18.90;48.85
40788;BME280;26497;52.494;7.546;2023-03-24T09:05:10;99413.84;;;19.59;46.98
40788;BME280;26497;52.494;7.546;2023-03-24T09:07:37;99423.28;;;19.81;46.93
40788;BME280;26497;52.494;7.546;2023-03-24T09:10:06;99423.72;;;19.89;46.83
40788;BME280;26497;52.494;7.546;2023-03-24T09:12:34;99421.53;;;19.96;47.03
40788;BME280;26497;52.494;7.546;2023-03-24T09:15:03;99424.03;;;19.52;47.31
40788;BME280;26497;52.494;7.546;2023-03-24T09:17:31;99419.81;;;19.32;45.94
40788;BME280;26497;52.494;7.546;2023-03-24T09:19:59;99412.69;;;19.17;46.79
40788;BME280;26497;52.494;7.546;2023-03-24T09:22:27;99424.66;;;19.25;45.79
40788;BME280;26497;52.494;7.546;2023-03-24T09:24:54;99419.22;;;19.11;45.92
40788;BME280;26497;52.494;7.546;2023-03-24T09:27:21;99420.34;;;19.39;46.04
40788;BME280;26497;52.494;7.546;2023-03-24T09:29:49;99419.16;;;19.75;44.48
40788;BME280;26497;52.494;7.546;2023-03-24T09:32:17;99423.25;;;18.68;45.53
40788;BME280;26497;52.494;7.546;2023-03-24T09:34:45;99397.56;;;18.50;45.74
40788;BME280;26497;52.494;7.546;2023-03-24T09:37:13;99430.75;;;17.91;48.32
40788;BME280;26497;52.494;7.546;2023-03-24T09:39:40;99432.50;;;18.45;46.04
40788;BME280;26497;52.494;7.546;2023-03-24T09:42:23;99431.38;;;18.67;46.25
40788;BME280;26497;52.494;7.546;2023-03-24T09:44:54;99430.31;;;18.36;46.29
40788;BME280;26497;52.494;7.546;2023-03-24T09:47:27;99434.81;;;18.69;45.58
40788;BME280;26497;52.494;7.546;2023-03-24T09:50:00;99440.81;;;19.70;44.12
40788;BME280;26497;52.494;7.546;2023-03-24T09:52:34;99445.47;;;20.44;44.04
40788;BME280;26497;52.494;7.546;2023-03-24T09:55:03;99442.47;;;21.21;40.91
40788;BME280;26497;52.494;7.546;2023-03-24T09:57:35;99436.72;;;21.27;40.32
40788;BME280;26497;52.494;7.546;2023-03-24T10:00:15;99450.75;;;21.60;40.48
40788;BME280;26497;52.494;7.546;2023-03-24T10:02:43;99447.41;;;21.42;38.72
40788;BME280;26497;52.494;7.546;2023-03-24T10:05:13;99445.94;;;20.51;40.81
40788;BME280;26497;52.494;7.546;2023-03-24T10:07:49;99456.91;;;20.31;40.93
40788;BME280;26497;52.494;7.546;2023-03-24T10:10:26;99455.22;;;21.32;41.61
40788;BME280;26497;52.494;7.546;2023-03-24T10:13:03;99444.97;;;22.47;37.88
40788;BME280;26497;52.494;7.546;2023-03-24T10:15:37;99458.81;;;22.53;37.90
40788;BME280;26497;52.494;7.546;2023-03-24T10:18:24;99457.91;;;22.14;35.90
40788;BME280;26497;52.494;7.546;2023-03-24T10:20:58;99461.91;;;21.39;38.94
40788;BME280;26497;52.494;7.546;2023-03-24T10:23:35;99460.56;;;21.32;38.84
40788;BME280;26497;52.494;7.546;2023-03-24T10:26:20;99450.59;;;20.02;39.63
40788;BME280;26497;52.494;7.546;2023-03-24T10:28:55;99469.38;;;19.22;44.05
40788;BME280;26497;52.494;7.546;2023-03-24T10:31:30;99475.34;;;18.93;44.22
40788;BME280;26497;52.494;7.546;2023-03-24T10:33:58;99459.47;;;19.56;42.08
40788;BME280;26497;52.494;7.546;2023-03-24T10:36:26;99459.50;;;19.40;42.49
40788;BME280;26497;52.494;7.546;2023-03-24T10:38:56;99464.13;;;19.36;42.41
40788;BME280;26497;52.494;7.546;2023-03-24T10:41:25;99485.22;;;18.75;44.61
40788;BME280;26497;52.494;7.546;2023-03-24T10:43:55;99476.78;;;18.32;45.81
40788;BME280;26497;52.494;7.546;2023-03-24T10:46:27;99477.97;;;18.95;44.30
40788;BME280;26497;52.494;7.546;2023-03-24T10:49:07;99483.25;;;20.09;41.80
40788;BME280;26497;52.494;7.546;2023-03-24T10:51:36;99477.06;;;21.26;41.51
40788;BME280;26497;52.494;7.546;2023-03-24T10:54:15;99484.66;;;21.88;38.02
40788;BME280;26497;52.494;7.546;2023-03-24T10:56:45;99474.75;;;22.70;35.63
40788;BME280;26497;52.494;7.546;2023-03-24T10:59:31;99476.88;;;22.77;34.88
40788;BME280;26497;52.494;7.546;2023-03-24T11:02:15;99480.72;;;20.96;36.17
40788;BME280;26497;52.494;7.546;2023-03-24T11:04:47;99497.88;;;20.62;39.86
40788;BME280;26497;52.494;7.546;2023-03-24T11:07:18;99485.25;;;20.65;39.21
40788;BME280;26497;52.494;7.546;2023-03-24T11:09:57;99493.47;;;20.61;39.23
40788;BME280;26497;52.494;7.546;2023-03-24T11:12:29;99490.28;;;20.40;39.17
40788;BME280;26497;52.494;7.546;2023-03-24T11:15:15;99494.47;;;21.18;37.99
40788;BME280;26497;52.494;7.546;2023-03-24T11:17:43;99489.25;;;22.14;37.40
40788;BME280;26497;52.494;7.546;2023-03-24T11:20:17;99492.47;;;22.19;35.05
40788;BME280;26497;52.494;7.546;2023-03-24T11:23:05;99486.28;;;21.63;37.06
40788;BME280;26497;52.494;7.546;2023-03-24T11:25:36;99496.16;;;20.47;38.32
40788;BME280;26497;52.494;7.546;2023-03-24T11:28:06;99499.91;;;19.98;40.00
40788;BME280;26497;52.494;7.546;2023-03-24T11:30:44;99499.41;;;19.75;41.69
40788;BME280;26497;52.494;7.546;2023-03-24T11:33:19;99504.50;;;19.15;42.27
40788;BME280;26497;52.494;7.546;2023-03-24T11:35:47;99514.19;;;18.65;41.78
40788;BME280;26497;52.494;7.546;2023-03-24T11:38:16;99516.28;;;18.25;41.64
40788;BME280;26497;52.494;7.546;2023-03-24T11:40:55;99514.56;;;17.87;43.41
40788;BME280;26497;52.494;7.546;2023-03-24T11:43:25;99512.78;;;17.68;43.39
40788;BME280;26497;52.494;7.546;2023-03-24T11:45:59;99508.59;;;17.63;43.70
40788;BME280;26497;52.494;7.546;2023-03-24T11:48:34;99501.38;;;17.65;42.26
40788;BME280;26497;52.494;7.546;2023-03-24T11:51:05;99520.44;;;17.57;42.58
40788;BME280;26497;52.494;7.546;2023-03-24T11:53:43;99516.25;;;17.51;44.50
40788;BME280;26497;52.494;7.546;2023-03-24T11:56:20;99510.91;;;17.71;45.23
40788;BME280;26497;52.494;7.546;2023-03-24T11:58:55;99511.47;;;18.14;44.88
40788;BME280;26497;52.494;7.546;2023-03-24T12:01:29;99501.91;;;18.27;44.12
40788;BME280;26497;52.494;7.546;2023-03-24T12:04:13;99499.53;;;18.21;44.27
40788;BME280;26497;52.494;7.546;2023-03-24T12:06:57;99492.16;;;18.26;45.51
40788;BME280;26497;52.494;7.546;2023-03-24T12:09:36;99509.19;;;18.06;46.94
40788;BME280;26497;52.494;7.546;2023-03-24T12:12:22;99501.59;;;18.51;47.87
40788;BME280;26497;52.494;7.546;2023-03-24T12:15:20;99490.94;;;19.51;43.67
40788;BME280;26497;52.494;7.546;2023-03-24T12:17:59;99495.44;;;19.66;42.92
40788;BME280;26497;52.494;7.546;2023-03-24T12:20:31;99493.72;;;19.65;42.58
40788;BME280;26497;52.494;7.546;2023-03-24T12:23:06;99494.72;;;20.56;41.33
40788;BME280;26497;52.494;7.546;2023-03-24T12:25:44;99489.84;;;20.77;40.85
40788;BME280;26497;52.494;7.546;2023-03-24T12:28:39;99488.06;;;21.21;39.85
40788;BME280;26497;52.494;7.546;2023-03-24T12:31:38;99489.72;;;20.95;38.80
40788;BME280;26497;52.494;7.546;2023-03-24T12:34:33;99497.97;;;21.48;40.27
40788;BME280;26497;52.494;7.546;2023-03-24T12:37:08;99467.53;;;22.57;37.50
40788;BME280;26497;52.494;7.546;2023-03-24T12:39:46;99483.09;;;22.91;36.90
40788;BME280;26497;52.494;7.546;2023-03-24T12:42:19;99472.06;;;23.70;35.72
40788;BME280;26497;52.494;7.546;2023-03-24T12:45:12;99468.94;;;23.52;33.34
40788;BME280;26497;52.494;7.546;2023-03-24T12:48:15;99481.50;;;22.75;32.58
40788;BME280;26497;52.494;7.546;2023-03-24T12:50:59;99470.16;;;21.21;32.75
40788;BME280;26497;52.494;7.546;2023-03-24T12:53:44;99481.72;;;20.50;34.30
40788;BME280;26497;52.494;7.546;2023-03-24T12:56:17;99484.06;;;21.14;34.33
40788;BME280;26497;52.494;7.546;2023-03-24T12:58:49;99480.91;;;20.78;35.90
40788;BME280;26497;52.494;7.546;2023-03-24T13:01:24;99474.03;;;19.98;36.72
40788;BME280;26497;52.494;7.546;2023-03-24T13:03:59;99484.56;;;19.85;38.04
40788;BME280;26497;52.494;7.546;2023-03-24T13:06:36;99483.97;;;19.64;39.58
40788;BME280;26497;52.494;7.546;2023-03-24T13:09:16;99497.31;;;19.00;40.42
40788;BME280;26497;52.494;7.546;2023-03-24T13:11:54;99487.94;;;18.40;42.71
40788;BME280;26497;52.494;7.546;2023-03-24T13:14:29;99491.84;;;18.33;41.95
40788;BME280;26497;52.494;7.546;2023-03-24T13:17:05;99498.97;;;17.60;44.17
40788;BME280;26497;52.494;7.546;2023-03-24T13:19:35;99513.03;;;17.45;47.79
40788;BME280;26497;52.494;7.546;2023-03-24T13:22:03;99524.19;;;17.53;47.95
40788;BME280;26497;52.494;7.546;2023-03-24T13:24:32;99535.69;;;17.34;46.91
40788;BME280;26497;52.494;7.546;2023-03-24T13:27:05;99516.91;;;17.37;46.55
40788;BME280;26497;52.494;7.546;2023-03-24T13:30:06;99545.91;;;17.24;50.49
40788;BME280;26497;52.494;7.546;2023-03-24T13:32:41;99541.81;;;17.17;52.14
40788;BME280;26497;52.494;7.546;2023-03-24T13:35:19;99550.38;;;17.05;56.55